createdAt,value
2022-08-02T00:06:27.721Z,54.31
2022-08-02T00:16:37.494Z,66.85
2022-08-02T00:26:40.452Z,63.77
2022-08-02T00:36:42.402Z,54.11
2022-08-02T00:46:44.848Z,55.37
2022-08-02T00:56:50.061Z,68.63
2022-08-02T01:06:53.245Z,63.62
2022-08-02T01:17:04.180Z,54.71
2022-08-02T01:27:41.882Z,64.74
2022-08-02T01:37:49.162Z,61.61
2022-08-02T01:47:54.100Z,53.60
2022-08-02T01:58:05.320Z,64.35
2022-08-02T02:08:09.921Z,61.54
2022-08-02T02:18:18.544Z,53.81
2022-08-02T02:28:24.566Z,63.04
2022-08-02T02:38:31.082Z,62.31
2022-08-02T02:48:35.601Z,60.55
2022-08-02T02:58:38.645Z,52.82
2022-08-02T03:08:40.678Z,56.60
2022-08-02T03:18:44.396Z,67.57
2022-08-02T03:28:46.323Z,63.64
2022-08-02T03:38:50.272Z,54.58
2022-08-02T03:48:53.332Z,63.93
2022-08-02T03:59:13.666Z,61.77
2022-08-02T04:09:15.556Z,52.23
2022-08-02T04:19:26.675Z,55.61
2022-08-02T04:29:30.548Z,66.85
2022-08-02T04:39:32.529Z,62.01
2022-08-02T04:49:34.729Z,52.69
2022-08-02T04:59:36.585Z,55.16
2022-08-02T05:09:38.521Z,55.80
2022-08-02T05:19:41.460Z,68.10
2022-08-02T05:29:51.174Z,55.38
2022-08-02T05:39:56.497Z,54.94
2022-08-02T05:49:58.961Z,53.40
2022-08-02T06:00:11.355Z,48.47
2022-08-02T06:10:20.734Z,43.39
2022-08-02T06:20:24.287Z,37.28
2022-08-02T06:30:26.886Z,33.20
2022-08-02T06:40:48.426Z,29.65
2022-08-02T06:50:50.591Z,28.52
2022-08-02T07:00:53.874Z,26.45
2022-08-02T07:10:58.428Z,26.76
2022-08-02T07:21:00.408Z,26.59
2022-08-02T07:31:02.493Z,24.11
2022-08-02T07:41:04.791Z,23.35
2022-08-02T07:51:06.986Z,22.15
2022-08-02T08:01:10.264Z,20.50
2022-08-02T08:11:12.332Z,18.10
2022-08-02T08:21:14.459Z,16.34
2022-08-02T08:31:16.435Z,15.41
2022-08-02T08:41:19.522Z,14.33
2022-08-02T08:51:24.770Z,13.61
2022-08-02T09:01:27.325Z,13.14
2022-08-02T09:11:49.690Z,12.35
2022-08-02T09:22:00.957Z,12.13
2022-08-02T09:44:12.831Z,11.22
2022-08-02T09:54:24.606Z,10.92
2022-08-02T10:16:18.961Z,10.81
2022-08-02T10:37:21.661Z,12.06
2022-08-02T10:47:54.583Z,12.93
2022-08-02T10:59:06.168Z,15.17
2022-08-02T11:09:32.781Z,17.80
2022-08-02T11:19:55.842Z,20.31
2022-08-02T11:30:39.145Z,22.73
2022-08-02T11:41:17.248Z,23.91
2022-08-02T11:51:54.248Z,24.75
2022-08-02T12:13:21.225Z,26.85
2022-08-02T12:24:01.792Z,28.59
2022-08-02T12:34:15.334Z,28.93
2022-08-02T12:44:19.766Z,30.53
2022-08-02T12:54:31.002Z,31.50
2022-08-02T13:04:34.836Z,32.48
2022-08-02T13:14:41.707Z,33.60
2022-08-02T13:25:07.632Z,33.17
2022-08-02T13:35:34.898Z,33.81
2022-08-02T13:45:37.069Z,35.07
2022-08-02T13:55:43.388Z,35.94
2022-08-02T14:05:49.042Z,36.58
2022-08-02T14:15:51.430Z,38.03
2022-08-02T14:25:53.430Z,38.76
2022-08-02T14:35:57.039Z,38.93
2022-08-02T14:45:59.329Z,37.79
2022-08-02T14:56:01.355Z,38.51
2022-08-02T15:06:03.337Z,39.60
2022-08-02T15:16:05.757Z,40.19
2022-08-02T15:26:07.705Z,40.81
2022-08-02T15:36:10.178Z,42.25
2022-08-02T15:46:12.399Z,42.89
2022-08-02T15:56:14.495Z,43.82
2022-08-02T16:06:18.418Z,45.18
2022-08-02T16:16:22.530Z,45.10
2022-08-02T16:26:26.557Z,45.84
2022-08-02T16:36:28.835Z,46.59
2022-08-02T16:46:31.196Z,47.59
2022-08-02T16:56:34.055Z,49.21
2022-08-02T17:06:47.591Z,50.96
2022-08-02T17:16:54.197Z,52.50
2022-08-02T17:26:56.099Z,53.90
2022-08-02T17:36:58.026Z,54.25
2022-08-02T17:47:00.012Z,56.28
2022-08-02T17:57:04.432Z,67.71
2022-08-02T18:07:09.910Z,54.72
2022-08-02T18:17:14.428Z,53.07
2022-08-02T18:27:16.492Z,55.69
2022-08-02T18:37:18.614Z,68.03
2022-08-02T18:47:20.750Z,63.53
2022-08-02T18:58:02.487Z,52.84
2022-08-02T19:07:50.802Z,53.57
2022-08-02T19:17:57.318Z,65.00
2022-08-02T19:27:59.385Z,61.30
2022-08-02T19:38:09.783Z,53.71
2022-08-02T19:48:15.841Z,55.17
2022-08-02T19:58:17.798Z,66.88
2022-08-02T20:08:31.773Z,63.32
2022-08-02T20:18:38.003Z,53.75
2022-08-02T20:28:41.571Z,55.62
2022-08-02T20:38:43.749Z,66.47
2022-08-02T20:48:45.824Z,64.12
2022-08-02T20:58:47.869Z,61.49
2022-08-02T21:08:54.688Z,60.52
2022-08-02T21:19:00.018Z,54.13
2022-08-02T21:29:03.664Z,55.97
2022-08-02T21:39:08.863Z,66.57
2022-08-02T21:49:11.491Z,64.53
2022-08-02T21:59:16.123Z,62.28
2022-08-02T22:09:44.521Z,60.71
2022-08-02T22:19:53.804Z,54.34
2022-08-02T22:29:56.592Z,63.28
2022-08-02T22:40:08.348Z,62.85
2022-08-02T22:50:12.179Z,60.99
2022-08-02T23:00:14.846Z,60.15
2022-08-02T23:10:16.778Z,54.13
2022-08-02T23:20:18.752Z,63.29
2022-08-02T23:30:21.043Z,61.68
2022-08-02T23:40:38.818Z,60.09
2022-08-02T23:50:42.031Z,54.09
